Time;durP1;ratioP1;P1;durP2;ratioP2;P2;SDS_P1;SDS_P2;PMS_P1;PMS_P2;Temp;Humidity;BMP_temperature;BMP_pressure;BME280_temperature;BME280_humidity;BME280_pressure;Samples;Min_cycle;Max_cycle;Signal;HPM_P1;HPM_P2
2023/10/08 00:01:14;;;;;;;30.80;8.25;;;;;;;18.32;100.00;102151.09;5028128;28;20041;-74
2023/10/08 00:03:40;;;;;;;27.10;8.50;;;;;;;18.34;100.00;102146.41;5030494;28;20034;-75
2023/10/08 00:06:06;;;;;;;21.17;7.20;;;;;;;18.29;100.00;102147.75;5029908;28;20042;-74
2023/10/08 00:08:35;;;;;;;23.58;7.30;;;;;;;18.42;100.00;102135.03;5025158;28;20034;-73
2023/10/08 00:11:07;;;;;;;43.42;8.57;;;;;;;18.42;100.00;102140.41;5034048;28;20153;-74
2023/10/08 00:13:39;;;;;;;24.50;8.10;;;;;;;18.34;100.00;102146.41;5028236;28;20087;-74
2023/10/08 00:16:17;;;;;;;24.13;8.50;;;;;;;18.32;100.00;102145.69;5029287;28;20030;-74
2023/10/08 00:18:52;;;;;;;23.05;8.48;;;;;;;18.33;100.00;102150.09;5025452;28;20038;-73
2023/10/08 00:21:20;;;;;;;29.70;8.02;;;;;;;18.35;100.00;102148.13;5033079;28;20044;-74
2023/10/08 00:23:52;;;;;;;34.10;8.82;;;;;;;18.32;100.00;102145.69;5027435;28;20065;-74
2023/10/08 00:26:27;;;;;;;20.85;8.32;;;;;;;18.32;100.00;102159.19;5032011;28;20047;-75
2023/10/08 00:28:55;;;;;;;30.15;8.63;;;;;;;18.28;100.00;102173.91;5027094;28;20144;-74
2023/10/08 00:31:24;;;;;;;22.95;8.55;;;;;;;18.24;100.00;102168.84;5025369;28;20030;-73
2023/10/08 00:33:49;;;;;;;37.05;8.85;;;;;;;18.24;100.00;102174.22;5030364;28;20099;-74
2023/10/08 00:36:19;;;;;;;32.08;8.48;;;;;;;18.22;100.00;102162.66;5037428;28;20041;-74
2023/10/08 00:38:52;;;;;;;29.98;8.20;;;;;;;18.19;100.00;102187.22;5031641;28;20050;-74
2023/10/08 00:41:39;;;;;;;27.42;7.80;;;;;;;18.30;100.00;102182.72;5030993;28;20559;-74
2023/10/08 00:44:07;;;;;;;29.63;7.57;;;;;;;18.31;100.00;102186.28;5022504;28;20058;-75
2023/10/08 00:46:36;;;;;;;29.95;9.43;;;;;;;18.25;100.00;102192.16;5036730;28;20499;-74
2023/10/08 00:49:24;;;;;;;30.08;9.07;;;;;;;18.26;100.00;102174.97;5031579;28;20041;-74
2023/10/08 00:54:32;;;;;;;31.35;9.05;;;;;;;18.23;100.00;102186.88;5027211;28;20601;-74
2023/10/08 00:57:04;;;;;;;33.88;9.77;;;;;;;18.20;100.00;102176.28;5023091;28;20083;-73
2023/10/08 00:59:37;;;;;;;34.45;9.55;;;;;;;18.24;100.00;102176.94;5023634;28;20037;-74
2023/10/08 01:02:14;;;;;;;33.67;9.23;;;;;;;18.26;100.00;102180.38;5032745;28;20039;-74
2023/10/08 01:04:40;;;;;;;28.70;9.30;;;;;;;18.27;100.00;102171.28;5024442;28;20042;-74
2023/10/08 01:07:18;;;;;;;34.55;9.48;;;;;;;18.27;100.00;102164.06;5032698;28;20054;-74
2023/10/08 01:09:50;;;;;;;41.42;9.98;;;;;;;18.29;100.00;102180.16;5021774;28;20037;-74
2023/10/08 01:14:49;;;;;;;39.55;10.10;;;;;;;18.28;100.00;102160.38;5025094;28;20608;-74
2023/10/08 01:17:16;;;;;;;33.88;8.90;;;;;;;18.24;100.00;102158.03;5026570;28;20041;-73
2023/10/08 01:19:50;;;;;;;34.38;9.85;;;;;;;18.28;100.00;102152.28;5022416;28;20041;-73
2023/10/08 01:22:19;;;;;;;36.03;10.18;;;;;;;18.30;100.00;102144.06;5031087;28;20030;-74
2023/10/08 01:24:54;;;;;;;26.10;8.73;;;;;;;18.24;100.00;102141.81;5027707;28;20085;-73
2023/10/08 01:27:24;;;;;;;29.15;8.63;;;;;;;18.18;100.00;102143.16;5025955;28;20048;-75
2023/10/08 01:29:53;;;;;;;37.42;9.68;;;;;;;18.08;100.00;102145.69;5017188;28;20038;-74
2023/10/08 01:32:21;;;;;;;31.10;9.43;;;;;;;18.14;100.00;102149.75;5021396;28;20049;-74
2023/10/08 01:34:47;;;;;;;40.53;10.23;;;;;;;18.17;100.00;102143.25;5025134;28;20072;-74
2023/10/08 01:37:16;;;;;;;30.48;8.90;;;;;;;18.15;100.00;102143.38;5033700;28;20115;-74
2023/10/08 01:39:48;;;;;;;31.98;8.38;;;;;;;18.17;100.00;102144.09;5022516;28;20037;-75
2023/10/08 01:42:17;;;;;;;32.58;8.13;;;;;;;18.15;100.00;102154.16;5032912;28;20033;-74
2023/10/08 01:44:48;;;;;;;33.22;10.00;;;;;;;18.10;100.00;102138.31;5021071;28;20033;-75
2023/10/08 01:47:15;;;;;;;32.03;10.02;;;;;;;18.06;100.00;102144.91;5019721;28;20022;-74
2023/10/08 01:49:43;;;;;;;31.80;9.10;;;;;;;18.05;100.00;102124.28;5018761;28;20042;-74
2023/10/08 01:52:16;;;;;;;26.98;8.23;;;;;;;18.01;100.00;102159.72;5024650;28;20044;-74
2023/10/08 01:54:42;;;;;;;28.73;9.70;;;;;;;17.93;100.00;102143.25;5030764;28;20037;-74
2023/10/08 01:57:09;;;;;;;27.65;8.77;;;;;;;17.99;100.00;102150.88;5033601;28;20049;-73
2023/10/08 01:59:35;;;;;;;35.40;9.75;;;;;;;17.97;100.00;102166.31;5032995;28;20037;-74
2023/10/08 02:02:00;;;;;;;31.20;10.02;;;;;;;17.99;100.00;102173.34;5021555;28;20132;-75
2023/10/08 02:04:26;;;;;;;35.63;11.23;;;;;;;17.98;100.00;102165.38;5030140;28;20045;-74
2023/10/08 02:06:51;;;;;;;39.47;9.73;;;;;;;17.96;100.00;102183.50;5031785;28;21031;-74
2023/10/08 02:09:16;;;;;;;35.05;9.77;;;;;;;17.95;100.00;102181.78;5028527;28;20133;-74
2023/10/08 02:11:50;;;;;;;38.25;12.52;;;;;;;17.98;100.00;102182.41;5013267;28;20041;-74
2023/10/08 02:14:20;;;;;;;34.15;9.73;;;;;;;17.99;100.00;102185.97;5021665;28;20048;-74
2023/10/08 02:16:52;;;;;;;29.50;10.23;;;;;;;18.01;100.00;102192.13;5025865;28;20111;-74
2023/10/08 02:19:18;;;;;;;31.38;11.68;;;;;;;17.95;100.00;102188.03;5028117;28;20052;-74
2023/10/08 02:21:46;;;;;;;30.35;11.05;;;;;;;17.97;100.00;102223.00;5032735;28;20932;-74
2023/10/08 02:24:12;;;;;;;41.22;11.90;;;;;;;17.95;100.00;102220.41;5035979;28;20102;-74
2023/10/08 02:26:39;;;;;;;37.42;12.13;;;;;;;17.95;100.00;102235.75;5022881;28;20521;-74
2023/10/08 02:29:10;;;;;;;36.47;11.77;;;;;;;17.90;100.00;102237.94;5011179;28;20041;-74
2023/10/08 02:31:38;;;;;;;31.40;11.88;;;;;;;17.84;100.00;102240.09;5028932;28;20041;-75
2023/10/08 02:34:07;;;;;;;36.30;12.98;;;;;;;17.84;100.00;102237.41;5020029;28;20140;-74
2023/10/08 02:36:36;;;;;;;39.85;12.65;;;;;;;17.74;100.00;102213.88;5020642;28;20034;-74
2023/10/08 02:39:13;;;;;;;41.55;13.32;;;;;;;17.79;100.00;102203.63;5014742;28;20037;-73
2023/10/08 02:41:41;;;;;;;38.95;11.60;;;;;;;17.88;100.00;102246.16;5020824;28;20046;-74
2023/10/08 02:44:11;;;;;;;29.48;11.45;;;;;;;17.91;100.00;102245.03;5024853;28;20034;-74
2023/10/08 02:46:40;;;;;;;50.15;13.55;;;;;;;17.84;100.00;102232.00;5059810;28;20030;-74
2023/10/08 02:49:12;;;;;;;38.50;12.80;;;;;;;17.75;100.00;102226.41;5030246;28;20239;-74
2023/10/08 02:51:44;;;;;;;;;;;;;;;17.77;100.00;102252.31;5027102;28;20072;-75
2023/10/08 02:54:17;;;;;;;33.33;12.17;;;;;;;17.72;100.00;102226.56;5016234;28;19916;-74
2023/10/08 02:57:00;;;;;;;40.65;13.05;;;;;;;17.60;100.00;102201.34;5030960;28;20037;-74
2023/10/08 02:59:28;;;;;;;;;;;;;;;17.68;100.00;102223.25;5033017;28;20029;-74
2023/10/08 03:01:56;;;;;;;42.35;13.52;;;;;;;17.70;100.00;102247.41;5031424;28;20040;-74
2023/10/08 03:04:22;;;;;;;41.65;12.60;;;;;;;17.76;100.00;102233.50;5036608;28;20175;-74
2023/10/08 03:06:52;;;;;;;36.33;13.10;;;;;;;17.74;100.00;102238.16;5030784;28;20973;-74
2023/10/08 03:09:31;;;;;;;41.70;12.10;;;;;;;17.77;100.00;102235.22;5015772;28;20145;-74
2023/10/08 03:11:58;;;;;;;47.05;12.77;;;;;;;17.83;100.00;102205.13;5021623;28;20120;-74
2023/10/08 03:14:27;;;;;;;33.42;11.43;;;;;;;17.85;100.00;102192.38;5041081;28;21281;-74
2023/10/08 03:17:03;;;;;;;39.85;11.13;;;;;;;17.75;100.00;102194.88;5023667;28;20034;-74
2023/10/08 03:19:29;;;;;;;42.15;11.82;;;;;;;17.76;100.00;102212.78;5024776;28;20030;-73
2023/10/08 03:21:56;;;;;;;32.10;12.05;;;;;;;17.70;100.00;102242.88;5019333;28;20037;-74
2023/10/08 03:27:07;;;;;;;39.95;11.75;;;;;;;17.72;100.00;102205.88;5029120;28;21196;-74
2023/10/08 03:29:42;;;;;;;42.72;12.77;;;;;;;17.72;100.00;102229.25;5027957;28;20057;-75
2023/10/08 03:32:15;;;;;;;33.33;10.98;;;;;;;17.73;100.00;102245.41;5028916;28;20040;-74
2023/10/08 03:34:49;;;;;;;29.58;10.75;;;;;;;17.69;100.00;102213.31;5030097;28;20040;-74
2023/10/08 03:37:20;;;;;;;38.33;12.50;;;;;;;17.72;100.00;102216.66;5017598;28;20151;-74
2023/10/08 03:40:00;;;;;;;47.13;12.52;;;;;;;17.72;100.00;102232.84;5030413;28;20148;-74
2023/10/08 03:42:33;;;;;;;24.00;11.02;;;;;;;17.81;100.00;102234.91;5018934;28;20573;-74
2023/10/08 03:45:09;;;;;;;30.77;12.52;;;;;;;17.81;100.00;102243.00;5027232;28;20042;-74
2023/10/08 03:47:37;;;;;;;35.20;11.45;;;;;;;17.83;100.00;102226.72;5033931;28;20037;-75
2023/10/08 03:50:06;;;;;;;43.78;12.40;;;;;;;17.77;100.00;102228.03;5033055;28;20033;-74
2023/10/08 03:52:31;;;;;;;36.75;13.30;;;;;;;17.81;100.00;102223.25;5024258;28;20926;-74
2023/10/08 03:55:13;;;;;;;35.88;12.65;;;;;;;17.77;100.00;102217.22;5033147;28;20099;-74
2023/10/08 03:57:42;;;;;;;32.38;11.70;;;;;;;17.82;100.00;102228.56;5029852;28;20127;-73
2023/10/08 04:00:18;;;;;;;41.65;12.32;;;;;;;17.84;100.00;102228.44;5034423;28;20036;-74
2023/10/08 04:02:55;;;;;;;44.00;13.15;;;;;;;17.85;100.00;102263.41;5026938;28;20052;-74
2023/10/08 04:05:27;;;;;;;34.97;12.05;;;;;;;17.79;100.00;102258.44;5029405;28;20045;-75
2023/10/08 04:13:08;;;;;;;34.33;11.55;;;;;;;17.88;100.00;102258.78;5024917;28;20037;-75
2023/10/08 04:15:34;;;;;;;37.47;12.70;;;;;;;17.84;100.00;102264.38;5026262;28;20033;-74
2023/10/08 04:18:02;;;;;;;37.80;12.07;;;;;;;17.77;100.00;102279.28;5033425;28;20137;-74
2023/10/08 04:21:00;;;;;;;33.10;14.63;;;;;;;17.67;100.00;102282.69;5033488;28;20044;-75
2023/10/08 04:23:20;;;;;;;35.42;13.50;;;;;;;16.96;100.00;102313.63;5032648;28;20112;-74
2023/10/08 04:25:53;;;;;;;26.10;10.60;;;;;;;16.33;100.00;102322.25;5027704;28;20087;-74
2023/10/08 04:28:20;;;;;;;28.00;9.70;;;;;;;16.07;100.00;102348.13;5031531;28;20209;-74
2023/10/08 04:30:48;;;;;;;33.92;10.35;;;;;;;16.11;100.00;102357.72;5026579;28;20041;-75
2023/10/08 04:33:14;;;;;;;24.80;8.75;;;;;;;15.93;100.00;102373.19;5031211;28;20056;-74
2023/10/08 04:35:51;;;;;;;26.52;8.52;;;;;;;15.85;100.00;102362.00;5040774;28;20091;-75
2023/10/08 04:38:21;;;;;;;22.23;8.35;;;;;;;15.62;100.00;102366.09;5026622;28;20037;-74
2023/10/08 04:40:51;;;;;;;23.50;7.95;;;;;;;15.70;100.00;102359.28;5026759;28;20177;-75
2023/10/08 04:43:24;;;;;;;19.55;7.30;;;;;;;15.68;100.00;102344.22;5033573;28;20068;-74
2023/10/08 04:48:46;;;;;;;17.83;7.53;;;;;;;15.43;100.00;102351.03;5019333;28;20865;-74
2023/10/08 04:51:13;;;;;;;22.40;7.32;;;;;;;15.23;100.00;102356.75;5025533;28;20037;-76
2023/10/08 04:53:40;;;;;;;18.42;7.63;;;;;;;15.40;100.00;102347.66;5035417;28;20635;-74
2023/10/08 04:56:13;;;;;;;21.83;7.47;;;;;;;15.46;100.00;102349.97;5034407;28;20049;-75
2023/10/08 04:58:41;;;;;;;25.52;9.35;;;;;;;15.28;100.00;102333.16;5036650;28;20080;-75
2023/10/08 05:17:03;;;;;;;14.23;6.60;;;;;;;15.10;100.00;102344.97;5030105;28;20100;-75
2023/10/08 05:38:23;;;;;;;13.63;4.28;;;;;;;14.98;100.00;102368.91;5018394;28;20095;-74
2023/10/08 05:54:35;;;;;;;14.50;5.20;;;;;;;14.83;100.00;102420.81;5023048;28;20033;-74
2023/10/08 06:05:20;;;;;;;14.60;4.63;;;;;;;14.57;100.00;102402.59;5026313;28;20037;-73
2023/10/08 06:13:43;;;;;;;9.48;5.10;;;;;;;14.25;100.00;102456.16;5026476;28;20113;-74
2023/10/08 06:16:08;;;;;;;10.13;5.63;;;;;;;14.12;100.00;102485.47;5022450;28;20037;-74
2023/10/08 06:18:34;;;;;;;11.57;5.50;;;;;;;14.11;100.00;102491.78;5024688;28;20045;-73
2023/10/08 06:21:08;;;;;;;9.63;5.72;;;;;;;14.21;100.00;102474.25;5020652;28;20046;-74
2023/10/08 06:23:35;;;;;;;8.85;4.40;;;;;;;14.19;100.00;102451.13;5025234;28;20084;-75
2023/10/08 06:28:38;;;;;;;14.45;6.28;;;;;;;14.29;100.00;102430.03;5021151;28;20092;-74
2023/10/08 06:31:11;;;;;;;12.50;5.65;;;;;;;14.23;100.00;102455.38;5019497;28;20034;-74
2023/10/08 06:33:40;;;;;;;11.65;6.22;;;;;;;14.22;100.00;102462.56;5033581;28;20030;-74
2023/10/08 06:36:13;;;;;;;14.60;6.18;;;;;;;14.14;100.00;102488.91;5028080;28;20152;-74
2023/10/08 06:38:44;;;;;;;13.00;6.15;;;;;;;14.27;100.00;102490.97;5039608;28;20033;-74
2023/10/08 06:43:38;;;;;;;14.70;6.70;;;;;;;14.25;100.00;102524.09;5026324;28;20033;-74
2023/10/08 06:46:07;;;;;;;9.55;5.85;;;;;;;14.34;100.00;102511.16;5023212;28;20545;-74
2023/10/08 06:48:34;;;;;;;15.90;6.72;;;;;;;14.36;100.00;102493.19;5025091;28;21037;-74
2023/10/08 06:51:07;;;;;;;13.35;6.95;;;;;;;14.42;100.00;102484.81;5023383;28;20033;-74
2023/10/08 06:53:33;;;;;;;11.75;6.78;;;;;;;14.38;100.00;102502.00;5021124;28;20145;-75
2023/10/08 06:56:04;;;;;;;12.85;7.72;;;;;;;14.44;100.00;102491.81;5025952;28;20029;-75
2023/10/08 06:58:32;;;;;;;18.63;8.38;;;;;;;14.33;100.00;102487.97;5021088;28;20042;-75
2023/10/08 07:00:58;;;;;;;14.95;7.70;;;;;;;14.41;100.00;102477.72;5017823;28;20028;-74
2023/10/08 07:03:24;;;;;;;17.88;9.43;;;;;;;14.41;100.00;102477.72;5028443;28;20056;-75
2023/10/08 07:05:54;;;;;;;19.60;9.68;;;;;;;14.38;100.00;102488.59;5027093;28;20049;-75
2023/10/08 07:08:23;;;;;;;19.30;8.70;;;;;;;14.41;100.00;102502.72;5028352;28;20030;-74
2023/10/08 07:10:50;;;;;;;22.73;10.25;;;;;;;14.30;100.00;102509.59;5032100;28;20040;-74
2023/10/08 07:13:17;;;;;;;20.58;10.65;;;;;;;14.44;100.00;102515.97;5039270;28;20136;-74
2023/10/08 07:15:46;;;;;;;18.45;10.30;;;;;;;14.41;100.00;102507.22;5031061;28;20029;-74
2023/10/08 07:18:21;;;;;;;18.00;9.30;;;;;;;14.48;100.00;102508.66;5027354;28;20041;-74
2023/10/08 07:20:53;;;;;;;18.17;7.93;;;;;;;14.31;100.00;102512.22;5031592;28;20037;-74
2023/10/08 07:23:19;;;;;;;17.70;8.45;;;;;;;14.51;100.00;102503.13;5031351;28;20041;-74
2023/10/08 07:25:53;;;;;;;19.38;8.05;;;;;;;14.57;100.00;102500.13;5027990;28;20088;-74
2023/10/08 07:28:19;;;;;;;16.77;7.32;;;;;;;14.51;100.00;102511.19;5032664;28;20081;-75
2023/10/08 07:30:46;;;;;;;18.45;7.22;;;;;;;14.69;100.00;102514.69;5028211;28;20104;-74
2023/10/08 07:33:17;;;;;;;16.35;6.40;;;;;;;14.65;100.00;102515.81;5029561;28;20567;-74
2023/10/08 07:36:20;;;;;;;13.40;6.20;;;;;;;14.64;100.00;102522.13;5026022;28;20088;-74
2023/10/08 07:38:42;;;;;;;12.25;5.88;;;;;;;14.65;100.00;102518.47;5020423;28;20049;-74
2023/10/08 07:41:12;;;;;;;19.40;6.57;;;;;;;14.69;100.00;102520.06;5022815;28;20064;-74
2023/10/08 07:43:42;;;;;;;13.93;5.15;;;;;;;14.66;100.00;102529.16;5024023;28;20037;-75
2023/10/08 07:46:09;;;;;;;15.40;5.15;;;;;;;14.68;100.00;102532.63;5023687;28;20029;-74
2023/10/08 07:48:34;;;;;;;13.77;5.25;;;;;;;14.53;100.00;102527.22;5025950;28;20045;-74
2023/10/08 07:51:00;;;;;;;17.02;4.85;;;;;;;14.63;100.00;102533.81;5027752;28;20033;-74
2023/10/08 07:53:37;;;;;;;8.43;4.75;;;;;;;14.80;100.00;102519.47;5027786;28;20147;-76
2023/10/08 07:56:06;;;;;;;15.82;5.07;;;;;;;14.81;100.00;102516.72;5023073;28;20053;-74
2023/10/08 07:58:33;;;;;;;9.30;4.47;;;;;;;14.76;100.00;102518.81;5031941;28;20065;-74
2023/10/08 08:01:03;;;;;;;10.73;5.43;;;;;;;14.80;100.00;102522.16;5028934;28;20045;-74
2023/10/08 08:03:28;;;;;;;11.45;5.03;;;;;;;14.94;100.00;102517.78;5027380;28;20141;-74
2023/10/08 08:05:54;;;;;;;12.02;4.32;;;;;;;15.05;100.00;102519.00;5024767;28;20047;-73
2023/10/08 08:08:21;;;;;;;8.02;4.28;;;;;;;14.82;100.00;102526.53;5032709;28;20029;-74
2023/10/08 08:10:47;;;;;;;9.82;4.03;;;;;;;14.83;100.00;102514.81;5034149;28;20029;-74
2023/10/08 08:13:20;;;;;;;8.48;4.53;;;;;;;14.88;100.00;102528.00;5031598;28;20107;-75
2023/10/08 08:15:50;;;;;;;13.57;4.55;;;;;;;14.67;100.00;102536.28;5032190;28;20133;-74
2023/10/08 08:18:22;;;;;;;8.90;4.63;;;;;;;14.93;100.00;102528.63;5031003;28;20041;-74
2023/10/08 08:20:48;;;;;;;5.70;3.22;;;;;;;15.15;100.00;102533.66;5036010;28;20168;-74
2023/10/08 08:23:14;;;;;;;8.65;4.80;;;;;;;15.26;100.00;102537.50;5032623;28;21064;-74
2023/10/08 08:26:06;;;;;;;7.40;3.30;;;;;;;15.22;100.00;102540.44;5026340;28;20041;-74
2023/10/08 08:28:31;;;;;;;11.25;4.57;;;;;;;15.24;100.00;102546.59;5026814;28;20045;-73
2023/10/08 08:31:06;;;;;;;12.23;3.72;;;;;;;15.14;100.00;102543.53;5022886;28;20037;-74
2023/10/08 08:33:52;;;;;;;6.75;3.70;;;;;;;15.34;100.00;102549.63;5025005;28;22135;-74
2023/10/08 08:36:17;;;;;;;7.45;3.47;;;;;;;15.44;100.00;102556.22;5035867;28;20772;-75
2023/10/08 08:38:43;;;;;;;6.82;3.42;;;;;;;15.42;100.00;102555.47;5027001;28;20045;-74
2023/10/08 08:41:12;;;;;;;8.48;2.83;;;;;;;15.31;100.00;102563.22;5030188;28;20581;-74
2023/10/08 08:43:44;;;;;;;7.95;3.30;;;;;;;15.41;100.00;102561.75;5023588;28;20087;-74
2023/10/08 08:46:12;;;;;;;8.00;2.70;;;;;;;15.59;100.00;102568.81;5031541;28;20068;-73
2023/10/08 08:48:44;;;;;;;6.82;2.83;;;;;;;15.89;100.00;102566.22;5032310;28;20076;-74
2023/10/08 08:51:10;;;;;;;7.13;2.65;;;;;;;15.97;100.00;102566.63;5030344;28;20131;-73
2023/10/08 08:53:37;;;;;;;10.35;2.33;;;;;;;16.11;100.00;102556.88;5028987;28;20041;-74
2023/10/08 08:56:06;;;;;;;7.35;2.97;;;;;;;16.10;100.00;102564.06;5021734;28;20052;-74
2023/10/08 08:58:33;;;;;;;5.35;2.17;;;;;;;15.48;100.00;102580.16;5019924;28;20048;-74
2023/10/08 09:01:00;;;;;;;5.57;2.65;;;;;;;15.42;100.00;102583.22;5028954;28;20040;-75
2023/10/08 09:03:30;;;;;;;6.40;2.50;;;;;;;15.77;100.00;102573.19;5027883;28;20111;-74
2023/10/08 09:05:59;;;;;;;8.32;2.33;;;;;;;15.72;100.00;102577.94;5030551;28;20049;-75
2023/10/08 09:08:33;;;;;;;4.28;2.20;;;;;;;15.69;100.00;102564.66;5024270;28;20036;-74
2023/10/08 09:11:04;;;;;;;6.18;2.63;;;;;;;15.90;100.00;102569.75;5034023;28;20156;-73
2023/10/08 09:13:31;;;;;;;7.85;2.78;;;;;;;15.96;100.00;102564.00;5025839;28;20045;-73
2023/10/08 09:16:08;;;;;;;9.73;3.50;;;;;;;16.38;100.00;102567.84;5026200;28;20025;-75
2023/10/08 09:18:34;;;;;;;5.95;3.03;;;;;;;16.50;100.00;102561.69;5018837;28;20089;-74
2023/10/08 09:21:19;;;;;;;8.57;2.67;;;;;;;16.42;100.00;102562.16;5024119;28;20040;-73
2023/10/08 09:23:50;;;;;;;11.35;2.67;;;;;;;16.20;100.00;102559.00;5017752;28;20124;-74
2023/10/08 09:26:23;;;;;;;4.40;2.27;;;;;;;16.26;100.00;102558.66;5032206;28;20034;-74
2023/10/08 09:28:49;;;;;;;5.20;2.13;;;;;;;16.43;100.00;102558.50;5022879;28;20040;-75
2023/10/08 09:31:17;;;;;;;4.72;2.50;;;;;;;16.82;100.00;102559.75;5022699;28;20041;-74
2023/10/08 09:33:44;;;;;;;7.45;2.85;;;;;;;16.50;100.00;102569.75;5025570;28;20038;-75
2023/10/08 09:36:18;;;;;;;9.00;2.60;;;;;;;16.30;100.00;102560.19;5020442;28;20045;-74
2023/10/08 09:38:44;;;;;;;4.72;2.83;;;;;;;16.57;100.00;102560.38;5025676;28;20045;-75
2023/10/08 09:41:12;;;;;;;8.98;2.70;;;;;;;16.52;100.00;102559.78;5023689;28;20034;-74
2023/10/08 09:43:41;;;;;;;6.85;2.92;;;;;;;16.86;100.00;102549.63;5023319;28;20033;-74
2023/10/08 09:46:18;;;;;;;7.15;2.88;;;;;;;16.69;100.00;102556.91;5029812;28;20059;-75
2023/10/08 09:48:52;;;;;;;5.20;2.67;;;;;;;16.41;100.00;102562.25;5021199;28;20034;-74
2023/10/08 09:51:18;;;;;;;5.63;2.67;;;;;;;16.39;100.00;102561.47;5030435;28;20032;-74
2023/10/08 09:54:16;;;;;;;6.43;2.88;;;;;;;16.81;100.00;102556.16;5030197;28;20037;-74
2023/10/08 09:56:44;;;;;;;6.68;3.72;;;;;;;16.86;100.00;102565.81;5040063;28;20988;-73
2023/10/08 09:59:09;;;;;;;6.43;3.53;;;;;;;16.77;100.00;102553.78;5029859;28;20038;-73
2023/10/08 10:01:39;;;;;;;7.95;3.17;;;;;;;16.93;100.00;102556.38;5033981;28;20048;-74
2023/10/08 10:04:11;;;;;;;6.32;2.88;;;;;;;17.03;100.00;102560.22;5028410;28;20045;-72
2023/10/08 10:06:37;;;;;;;9.40;3.35;;;;;;;16.84;100.00;102563.22;5029819;28;20045;-73
2023/10/08 10:09:15;;;;;;;5.93;3.30;;;;;;;17.02;100.00;102564.75;5030609;28;20061;-73
2023/10/08 10:11:47;;;;;;;6.07;3.33;;;;;;;16.92;100.00;102571.69;5030756;28;20065;-73
2023/10/08 10:14:13;;;;;;;7.60;3.63;;;;;;;16.87;100.00;102565.72;5028957;28;20115;-74
2023/10/08 10:16:41;;;;;;;6.05;3.20;;;;;;;16.88;100.00;102567.44;5023780;28;20037;-73
2023/10/08 10:19:17;;;;;;;6.20;3.13;;;;;;;17.00;100.00;102555.88;5031874;28;20049;-74
2023/10/08 10:21:42;;;;;;;4.93;3.13;;;;;;;16.94;100.00;102561.66;5028330;28;20033;-73
2023/10/08 10:24:27;;;;;;;8.13;3.05;;;;;;;17.13;100.00;102557.81;5030557;28;20068;-73
2023/10/08 10:27:10;;;;;;;5.07;3.17;;;;;;;17.51;100.00;102561.59;5029091;28;20045;-75
2023/10/08 10:29:36;;;;;;;5.10;2.85;;;;;;;17.78;100.00;102569.75;5022596;28;20116;-76
2023/10/08 10:32:02;;;;;;;5.95;3.00;;;;;;;17.60;100.00;102566.38;5031330;28;20033;-75
2023/10/08 10:34:30;;;;;;;5.90;2.42;;;;;;;17.39;100.00;102569.63;5023734;28;20037;-76
2023/10/08 10:37:02;;;;;;;6.18;2.80;;;;;;;17.28;100.00;102559.53;5029646;28;20029;-75
2023/10/08 10:39:32;;;;;;;5.65;3.05;;;;;;;17.69;100.00;102555.97;5028400;28;20041;-74
2023/10/08 10:42:03;;;;;;;5.00;2.60;;;;;;;17.76;100.00;102557.31;5023543;28;20033;-75
2023/10/08 10:44:30;;;;;;;6.85;2.53;;;;;;;17.48;100.00;102561.81;5034185;28;20940;-74
2023/10/08 10:47:42;;;;;;;5.57;2.90;;;;;;;17.66;100.00;102562.44;5025642;28;20037;-75
2023/10/08 10:57:55;;;;;;;5.22;2.75;;;;;;;17.90;100.00;102568.06;5019904;28;20045;-75
2023/10/08 11:03:02;;;;;;;5.00;2.78;;;;;;;17.88;100.00;102563.75;5026121;28;20072;-75
2023/10/08 11:05:29;;;;;;;7.25;3.17;;;;;;;18.12;100.00;102562.06;5023767;28;20049;-75
2023/10/08 11:08:04;;;;;;;7.50;3.67;;;;;;;18.34;100.00;102575.00;5031553;28;20060;-75
2023/10/08 11:10:34;;;;;;;5.10;2.97;;;;;;;18.39;100.00;102559.34;5030178;28;20040;-75
2023/10/08 11:13:01;;;;;;;5.38;3.70;;;;;;;18.18;100.00;102550.03;5032849;28;20038;-73
2023/10/08 11:15:37;;;;;;;6.82;3.28;;;;;;;18.56;100.00;102544.66;5023672;28;20033;-75
2023/10/08 11:18:10;;;;;;;4.85;3.38;;;;;;;18.47;100.00;102553.41;5021369;28;20077;-75
2023/10/08 11:20:44;;;;;;;6.78;3.67;;;;;;;17.71;100.00;102552.19;5032254;28;20997;-74
2023/10/08 11:23:33;;;;;;;8.55;3.53;;;;;;;17.39;100.00;102553.44;5027872;28;20030;-73
2023/10/08 11:26:02;;;;;;;8.18;3.67;;;;;;;17.54;100.00;102547.06;5033001;28;20037;-73
2023/10/08 11:28:29;;;;;;;6.05;3.83;;;;;;;17.41;100.00;102546.97;5014449;28;20026;-74
2023/10/08 11:30:59;;;;;;;5.40;3.65;;;;;;;17.69;100.00;102540.66;5024022;28;20156;-74
2023/10/08 11:33:27;;;;;;;6.32;3.75;;;;;;;18.14;100.00;102543.09;5025473;28;20151;-73
2023/10/08 11:36:06;;;;;;;7.15;3.28;;;;;;;18.13;100.00;102544.94;5023310;28;20042;-74
2023/10/08 11:38:39;;;;;;;5.05;2.97;;;;;;;18.41;100.00;102538.47;5029479;28;20061;-74
2023/10/08 11:41:20;;;;;;;3.88;3.10;;;;;;;18.08;100.00;102531.75;5023291;28;20034;-74
2023/10/08 11:43:57;;;;;;;3.85;2.85;;;;;;;17.70;100.00;102525.31;5028762;28;20048;-74
2023/10/08 11:46:38;;;;;;;3.88;2.45;;;;;;;17.93;100.00;102530.09;5028707;28;20053;-74
2023/10/08 11:49:17;;;;;;;4.53;2.47;;;;;;;18.28;100.00;102529.50;5021824;28;20060;-75
2023/10/08 11:51:44;;;;;;;6.28;2.83;;;;;;;17.59;100.00;102531.44;5025286;28;20034;-73
2023/10/08 11:54:11;;;;;;;7.72;3.47;;;;;;;17.51;100.00;102531.91;5028751;28;20033;-74
2023/10/08 11:56:38;;;;;;;4.82;3.60;;;;;;;17.64;100.00;102533.81;5030393;28;21073;-73
2023/10/08 11:59:11;;;;;;;4.53;2.92;;;;;;;17.64;100.00;102544.63;5038815;28;20049;-74
2023/10/08 12:01:41;;;;;;;6.13;3.08;;;;;;;17.41;100.00;102541.59;5021686;28;20045;-74
2023/10/08 12:04:12;;;;;;;3.50;3.13;;;;;;;17.63;100.00;102538.38;5035504;28;20041;-73
2023/10/08 12:06:46;;;;;;;5.82;3.38;;;;;;;17.55;100.00;102536.16;5030132;28;20836;-72
2023/10/08 12:09:15;;;;;;;3.88;2.80;;;;;;;17.36;100.00;102538.31;5034403;28;20149;-73
2023/10/08 12:11:40;;;;;;;4.95;2.80;;;;;;;17.32;100.00;102532.28;5028713;28;20029;-72
2023/10/08 12:14:06;;;;;;;4.95;2.55;;;;;;;17.25;100.00;102530.06;5031192;28;20034;-73
2023/10/08 12:16:35;;;;;;;5.53;2.63;;;;;;;17.29;100.00;102527.06;5029298;28;20034;-74
2023/10/08 12:19:01;;;;;;;2.72;2.50;;;;;;;17.42;100.00;102519.06;5033542;28;20041;-74
2023/10/08 12:21:31;;;;;;;3.88;3.30;;;;;;;17.30;100.00;102512.63;5027667;28;20069;-74
2023/10/08 12:24:04;;;;;;;4.68;3.30;;;;;;;17.22;100.00;102501.50;5023042;28;20114;-74
2023/10/08 12:26:31;;;;;;;7.60;3.00;;;;;;;17.63;100.00;102500.59;5028896;28;20117;-73
2023/10/08 12:28:57;;;;;;;4.78;2.70;;;;;;;17.65;100.00;102500.47;5027375;28;20069;-74
2023/10/08 12:31:24;;;;;;;7.35;3.13;;;;;;;17.37;100.00;102499.63;5023472;28;20035;-73
2023/10/08 12:33:57;;;;;;;3.30;3.00;;;;;;;17.23;100.00;102503.22;5034523;28;20036;-73
2023/10/08 12:36:23;;;;;;;3.60;3.10;;;;;;;17.41;100.00;102500.25;5026614;28;20606;-74
2023/10/08 12:38:57;;;;;;;4.53;3.15;;;;;;;17.30;100.00;102484.78;5029620;28;20065;-73
2023/10/08 12:41:24;;;;;;;4.75;3.15;;;;;;;17.41;100.00;102478.69;5026366;28;20072;-76
2023/10/08 12:43:52;;;;;;;3.75;2.90;;;;;;;17.49;100.00;102479.06;5028454;28;20894;-74
2023/10/08 12:46:19;;;;;;;4.68;2.72;;;;;;;17.68;100.00;102466.06;5034627;28;20199;-73
2023/10/08 12:48:52;;;;;;;4.20;2.78;;;;;;;17.47;100.00;102468.38;5026466;28;20045;-73
2023/10/08 12:51:18;;;;;;;5.75;3.17;;;;;;;17.54;100.00;102458.03;5027672;28;20037;-75
2023/10/08 12:54:03;;;;;;;4.75;2.65;;;;;;;17.30;100.00;102449.75;5032071;28;20040;-74
2023/10/08 12:56:32;;;;;;;2.97;1.75;;;;;;;17.91;100.00;102459.13;5027314;28;20088;-73
2023/10/08 12:58:58;;;;;;;4.40;1.70;;;;;;;17.44;100.00;102448.84;5023157;28;20054;-74
2023/10/08 13:01:28;;;;;;;2.35;1.88;;;;;;;17.03;100.00;102447.03;5024203;28;20120;-74